createdAt,value
2019-01-03T00:18:19.560Z,1.22
2019-01-03T00:23:57.070Z,1.35
2019-01-03T00:30:31.527Z,1.28
2019-01-03T01:02:05.811Z,0.71
2019-01-03T02:58:23.743Z,0.64
2019-01-03T04:14:24.747Z,-0.30
2019-01-03T04:51:57.501Z,0.08
2019-01-03T05:28:39.738Z,0.20
2019-01-03T05:35:11.927Z,0.11
2019-01-03T08:48:48.559Z,-0.02
2019-01-03T08:54:32.670Z,0.16
2019-01-03T10:03:16.867Z,1.81
2019-01-03T10:42:00.527Z,3.42
2019-01-03T11:18:41.332Z,4.34
2019-01-03T11:23:43.711Z,4.98
2019-01-03T11:28:46.375Z,5.65
2019-01-03T11:33:48.785Z,5.82
2019-01-03T11:38:51.222Z,5.96
2019-01-03T11:43:54.321Z,5.66
2019-01-03T11:48:56.954Z,5.54
2019-01-03T11:53:59.086Z,5.35
2019-01-03T11:59:01.040Z,5.37
2019-01-03T12:04:03.573Z,5.32
2019-01-03T12:09:06.762Z,5.03
2019-01-03T12:14:08.885Z,5.09
2019-01-03T12:19:11.348Z,5.72
2019-01-03T12:24:14.365Z,5.83
2019-01-03T12:29:16.860Z,5.98
2019-01-03T12:34:19.528Z,5.55
2019-01-03T12:39:22.489Z,5.40
2019-01-03T12:44:25.062Z,5.33
2019-01-03T12:49:27.742Z,5.52
2019-01-03T12:54:30.660Z,5.66
2019-01-03T12:59:33.431Z,6.05
2019-01-03T13:04:36.182Z,6.33
2019-01-03T13:09:38.995Z,6.44
2019-01-03T13:14:41.553Z,6.45
2019-01-03T13:19:43.640Z,6.18
2019-01-03T13:24:46.265Z,6.04
2019-01-03T13:29:48.997Z,5.51
2019-01-03T13:34:52.015Z,5.28
2019-01-03T13:39:54.943Z,5.07
2019-01-03T13:44:57.335Z,5.25
2019-01-03T13:50:00.239Z,5.40
2019-01-03T13:55:03.713Z,5.37
2019-01-03T14:00:09.192Z,4.89
2019-01-03T14:05:12.034Z,4.56
2019-01-03T14:10:14.924Z,4.68
2019-01-03T14:15:17.746Z,4.70
2019-01-03T14:20:20.568Z,4.44
2019-01-03T14:25:23.217Z,4.22
2019-01-03T14:30:29.276Z,3.94
2019-01-03T14:35:36.599Z,3.86
2019-01-03T14:40:39.215Z,3.79
2019-01-03T14:45:41.934Z,3.73
2019-01-03T14:50:44.631Z,3.46
2019-01-03T14:55:47.376Z,3.43
2019-01-03T15:00:50.193Z,3.31
2019-01-03T15:05:53.087Z,3.16
2019-01-03T15:10:56.107Z,3.07
2019-01-03T15:15:58.867Z,2.89
2019-01-03T15:21:01.589Z,3.08
2019-01-03T15:26:04.700Z,3.07
2019-01-03T15:31:07.496Z,2.93
2019-01-03T15:36:10.096Z,2.68
2019-01-03T15:41:12.803Z,2.91
2019-01-03T15:46:15.282Z,2.83
2019-01-03T15:51:18.065Z,2.87
2019-01-03T15:56:21.004Z,2.79
2019-01-03T16:01:24.105Z,2.86
2019-01-03T16:06:27.002Z,2.76
2019-01-03T16:11:29.492Z,2.75
2019-01-03T16:16:31.891Z,2.68
2019-01-03T16:21:34.233Z,2.65
2019-01-03T16:26:36.692Z,2.58
2019-01-03T16:31:39.479Z,3.05
2019-01-03T16:36:42.310Z,2.73
2019-01-03T16:41:44.953Z,2.38
2019-01-03T16:46:47.634Z,2.47
2019-01-03T16:51:50.237Z,2.41
2019-01-03T16:56:53.052Z,2.37
2019-01-03T17:01:55.874Z,1.88
2019-01-03T17:06:58.137Z,1.71
2019-01-03T17:12:00.502Z,1.94
2019-01-03T17:17:02.886Z,1.93
2019-01-03T17:22:05.393Z,1.97
2019-01-03T17:27:08.051Z,1.84
2019-01-03T17:32:11.060Z,1.91
2019-01-03T17:37:13.917Z,1.94
2019-01-03T17:42:16.942Z,1.88
2019-01-03T17:47:19.841Z,1.66
2019-01-03T17:52:22.630Z,1.65
2019-01-03T17:57:25.029Z,1.82
2019-01-03T18:02:27.305Z,1.73
2019-01-03T18:07:30.414Z,1.79
2019-01-03T18:12:33.310Z,1.81
2019-01-03T18:17:36.208Z,1.74
2019-01-03T18:22:39.235Z,1.76
2019-01-03T18:27:44.240Z,1.78
2019-01-03T18:32:46.936Z,1.75
2019-01-03T18:37:49.384Z,1.75
2019-01-03T18:42:51.985Z,1.88
2019-01-03T18:47:54.677Z,1.83
2019-01-03T18:52:57.464Z,1.64
2019-01-03T18:58:00.550Z,1.59
2019-01-03T19:03:03.501Z,1.55
2019-01-03T19:08:06.071Z,1.53
2019-01-03T19:13:08.766Z,1.66
2019-01-03T19:18:12.103Z,1.77
2019-01-03T19:23:15.088Z,1.69
2019-01-03T19:28:17.896Z,1.63
2019-01-03T19:33:21.063Z,1.72
2019-01-03T19:38:23.806Z,1.59
2019-01-03T19:43:27.757Z,1.53
2019-01-03T19:48:33.079Z,1.45
2019-01-03T19:53:38.240Z,0.76
2019-01-03T19:58:44.520Z,0.98
2019-01-03T20:03:50.371Z,1.19
2019-01-03T20:08:54.702Z,1.13
2019-01-03T20:13:58.803Z,0.54
2019-01-03T20:19:01.771Z,0.93
2019-01-03T20:24:05.527Z,1.16
2019-01-03T20:29:09.171Z,1.16
2019-01-03T20:34:13.855Z,1.24
2019-01-03T20:39:17.638Z,1.20
2019-01-03T20:44:22.868Z,1.08
2019-01-03T20:49:26.652Z,1.12
2019-01-03T20:54:33.571Z,1.18
2019-01-03T20:59:38.452Z,1.24
2019-01-03T21:04:44.282Z,1.33
2019-01-03T21:09:49.317Z,1.36
2019-01-03T21:14:56.074Z,1.29
2019-01-03T21:20:02.317Z,1.35
2019-01-03T21:25:07.937Z,1.01
2019-01-03T21:30:14.367Z,1.19
2019-01-03T21:35:18.882Z,1.29
2019-01-03T21:40:23.223Z,1.14
2019-01-03T21:45:27.141Z,1.12
2019-01-03T21:50:31.278Z,1.29
2019-01-03T21:55:34.963Z,1.40
2019-01-03T22:00:37.546Z,1.46
2019-01-03T22:05:40.735Z,1.42
2019-01-03T22:10:44.036Z,1.50
2019-01-03T22:15:46.932Z,1.54
2019-01-03T22:20:50.168Z,1.64
2019-01-03T22:25:52.999Z,1.58
2019-01-03T22:30:56.157Z,1.44
2019-01-03T22:35:59.543Z,1.30
2019-01-03T22:41:02.466Z,1.47
2019-01-03T22:46:05.080Z,1.30
2019-01-03T22:51:07.993Z,1.02
2019-01-03T22:56:10.769Z,1.35
2019-01-03T23:01:13.561Z,1.44
2019-01-03T23:06:16.654Z,1.49
2019-01-03T23:11:19.564Z,1.52
2019-01-03T23:16:22.776Z,1.37
2019-01-03T23:21:25.800Z,1.34
2019-01-03T23:26:28.430Z,1.50
2019-01-03T23:31:30.987Z,1.58
2019-01-03T23:36:33.676Z,1.66
2019-01-03T23:41:36.623Z,1.68
2019-01-03T23:46:39.188Z,1.70
2019-01-03T23:51:42.269Z,1.68
2019-01-03T23:56:45.061Z,1.76
